Talbotton, Georgia
Current Conditions -  °F | °C
As of 2:15 PM on Friday 31 Oct 2014 (Local Time) from KOPN Reporting Station
Overcast Overcast  
Wind Chill: 64°   Ceiling: 9000
Heat Index: 64°   Visibility: 10mi
Dew Point: 43°   Wind: 13mph
Humidity: 45%   Direction: 320°NW
Pressure: 29.9"   Gusts: NA
Location:  32.68°N, 84.54°W
Report Text: KOPN 311815Z AUTO 32011KT 10SM OVC090 18/06 A2990 RMK AO2
Loading
Personal Weather Stations






























Interactive Weather Map
Tropical Storm Tracking
New forecast layout! Learn more

10-Day Weather Forecast

Advertisements
Track Severe Weather on mobile